Ancona / Falconara Airport LIPY

Flugplatz Daten

Name: Ancona / Falconara Airport

Ident: LIPY

Lat: 43,61629868

Long: 13,36229992

Platzhöhe: 49 ft

IataCode: AOI

City: Ancona

Homepage: http://www.aeroportomarche.com/index.php?lang=english

Metar

2021/12/04 00:20
LIPY 040020Z AUTO 18003KT 8000 05/04 Q1014

Taf

2021/12/03 00:21
TAF LIPY 032300Z 0400/0424 36010KT 9999 BKN030
BECMG 0400/0402 VRB06KT
BECMG 0412/0414 16010KT
Gewünschte Webcam nicht vorhanden? Dann fügen Sie eine hinzu. Sie wird dann so schnell wie möglich freigeschaltet
Url: Title: